createdAt,value
2019-03-30T00:01:41.137Z,50.33
2019-03-30T00:04:12.872Z,50.38
2019-03-30T00:06:44.616Z,50.42
2019-03-30T00:09:18.350Z,50.48
2019-03-30T00:11:50.399Z,50.54
2019-03-30T00:14:22.203Z,50.56
2019-03-30T00:16:53.894Z,50.60
2019-03-30T00:19:34.707Z,50.68
2019-03-30T00:21:59.104Z,50.71
2019-03-30T00:24:30.837Z,50.75
2019-03-30T00:27:02.586Z,50.81
2019-03-30T00:29:34.510Z,50.83
2019-03-30T00:32:06.196Z,50.87
2019-03-30T00:34:37.941Z,50.94
2019-03-30T00:37:09.704Z,50.98
2019-03-30T00:39:41.785Z,51.02
2019-03-30T00:42:13.550Z,51.05
2019-03-30T00:44:45.273Z,51.08
2019-03-30T00:47:16.988Z,51.12
2019-03-30T00:49:50.130Z,51.16
2019-03-30T00:52:22.075Z,51.23
2019-03-30T00:54:53.841Z,51.25
2019-03-30T00:57:25.541Z,51.30
2019-03-30T00:59:57.331Z,51.33
2019-03-30T01:02:29.157Z,51.37
2019-03-30T01:05:00.910Z,51.39
2019-03-30T01:07:32.697Z,51.43
2019-03-30T01:10:04.633Z,51.47
2019-03-30T01:12:36.369Z,51.47
2019-03-30T01:15:08.433Z,51.53
2019-03-30T01:17:40.301Z,51.57
2019-03-30T01:20:12.153Z,51.59
2019-03-30T01:22:43.907Z,51.61
2019-03-30T01:25:15.594Z,51.66
2019-03-30T01:27:47.363Z,51.68
2019-03-30T01:30:23.296Z,51.72
2019-03-30T01:32:52.878Z,51.77
2019-03-30T01:35:24.787Z,51.80
2019-03-30T01:37:56.670Z,51.83
2019-03-30T01:40:28.361Z,51.88
2019-03-30T01:43:00.066Z,51.91
2019-03-30T01:45:31.794Z,51.97
2019-03-30T01:48:03.537Z,52.01
2019-03-30T01:50:35.401Z,52.06
2019-03-30T01:53:07.100Z,52.08
2019-03-30T01:55:38.781Z,52.17
2019-03-30T01:58:10.490Z,52.20
2019-03-30T02:00:42.221Z,52.24
2019-03-30T02:03:13.918Z,52.26
2019-03-30T02:05:45.714Z,52.29
2019-03-30T02:08:17.446Z,52.34
2019-03-30T02:10:49.293Z,52.37
2019-03-30T02:13:21.037Z,52.39
2019-03-30T02:15:52.775Z,52.42
2019-03-30T02:18:24.590Z,52.48
2019-03-30T02:20:56.317Z,52.51
2019-03-30T02:23:28.068Z,52.55
2019-03-30T02:25:59.767Z,52.61
2019-03-30T02:28:31.553Z,52.61
2019-03-30T02:31:03.275Z,52.62
2019-03-30T02:33:34.982Z,52.64
2019-03-30T02:36:06.723Z,52.68
2019-03-30T02:38:38.475Z,52.70
2019-03-30T02:41:10.162Z,52.71
2019-03-30T02:43:41.942Z,52.73
2019-03-30T02:46:13.743Z,52.73
2019-03-30T02:48:45.475Z,52.76
2019-03-30T02:51:17.218Z,52.79
2019-03-30T02:53:49.969Z,52.83
2019-03-30T02:56:21.775Z,52.85
2019-03-30T02:58:53.501Z,52.88
2019-03-30T03:01:26.847Z,52.92
2019-03-30T03:03:58.576Z,52.94
2019-03-30T03:06:30.273Z,52.96
2019-03-30T03:09:02.050Z,52.98
2019-03-30T03:11:35.136Z,53.02
2019-03-30T03:14:06.849Z,53.03
2019-03-30T03:16:38.554Z,53.05
2019-03-30T03:19:10.325Z,53.09
2019-03-30T03:21:43.108Z,53.12
2019-03-30T03:24:15.912Z,53.15
2019-03-30T03:26:47.661Z,53.19
2019-03-30T03:29:19.586Z,53.17
2019-03-30T03:31:51.316Z,53.22
2019-03-30T03:34:23.016Z,53.23
2019-03-30T03:36:55.698Z,53.25
2019-03-30T03:39:27.407Z,53.26
2019-03-30T03:41:59.097Z,53.30
2019-03-30T03:44:30.805Z,53.34
2019-03-30T03:47:02.590Z,53.36
2019-03-30T03:49:35.388Z,53.39
2019-03-30T03:52:07.369Z,53.43
2019-03-30T03:54:39.053Z,53.46
2019-03-30T03:57:12.314Z,53.50
2019-03-30T03:59:44.051Z,53.52
2019-03-30T04:02:16.101Z,53.55
2019-03-30T04:04:49.817Z,53.58
2019-03-30T04:07:23.038Z,53.60
2019-03-30T04:09:56.396Z,53.65
2019-03-30T04:12:30.588Z,53.67
2019-03-30T04:15:02.332Z,53.68
2019-03-30T04:17:34.150Z,53.70
2019-03-30T04:20:06.852Z,53.71
2019-03-30T04:22:38.648Z,53.71
2019-03-30T04:25:10.466Z,53.71
2019-03-30T04:27:42.195Z,53.68
2019-03-30T04:30:14.063Z,53.70
2019-03-30T04:32:45.953Z,53.72
2019-03-30T04:35:17.661Z,53.77
2019-03-30T04:37:49.467Z,53.77
2019-03-30T04:40:21.223Z,53.79
2019-03-30T04:42:53.001Z,53.82
2019-03-30T04:45:24.758Z,53.83
2019-03-30T04:47:56.494Z,53.88
2019-03-30T04:50:28.289Z,53.92
2019-03-30T04:53:00.092Z,53.96
2019-03-30T04:55:31.893Z,53.97
2019-03-30T04:58:03.658Z,54.01
2019-03-30T05:00:35.471Z,54.02
2019-03-30T05:03:07.325Z,54.09
2019-03-30T05:05:42.783Z,54.13
2019-03-30T05:08:12.777Z,54.17
2019-03-30T05:10:44.562Z,54.22
2019-03-30T05:13:16.287Z,54.27
2019-03-30T05:15:47.994Z,54.33
2019-03-30T05:18:19.693Z,54.37
2019-03-30T05:20:51.440Z,54.43
2019-03-30T05:23:23.344Z,54.46
2019-03-30T05:25:55.069Z,54.47
2019-03-30T05:28:26.754Z,54.50
2019-03-30T05:30:58.562Z,54.51
2019-03-30T05:33:30.336Z,54.54
2019-03-30T05:36:02.006Z,54.54
2019-03-30T05:38:33.744Z,54.59
2019-03-30T05:41:05.768Z,54.61
2019-03-30T05:43:37.415Z,54.64
2019-03-30T05:46:09.194Z,54.68
2019-03-30T05:48:40.884Z,54.76
2019-03-30T05:51:12.602Z,54.79
2019-03-30T05:53:44.304Z,54.83
2019-03-30T05:56:16.126Z,54.90
2019-03-30T05:58:47.808Z,54.94
2019-03-30T06:01:19.555Z,55.00
2019-03-30T06:03:51.311Z,55.04
2019-03-30T06:06:23.041Z,55.09
2019-03-30T06:08:54.782Z,55.15
2019-03-30T06:11:26.685Z,55.20
2019-03-30T06:13:58.381Z,55.27
2019-03-30T06:16:30.130Z,55.36
2019-03-30T06:19:01.842Z,55.41
2019-03-30T06:21:33.546Z,55.46
2019-03-30T06:24:05.444Z,55.53
2019-03-30T06:26:38.111Z,55.57
2019-03-30T06:29:09.924Z,55.62
2019-03-30T06:31:41.733Z,55.64
2019-03-30T06:34:13.506Z,55.69
2019-03-30T06:36:46.520Z,55.73
2019-03-30T06:39:18.426Z,55.75
2019-03-30T06:41:50.369Z,55.79
2019-03-30T06:44:22.166Z,55.84
2019-03-30T06:46:54.044Z,55.86
2019-03-30T06:49:25.923Z,55.88
2019-03-30T06:51:57.762Z,55.90
2019-03-30T06:54:29.732Z,55.94
2019-03-30T06:57:01.638Z,55.98
2019-03-30T06:59:33.508Z,55.99
2019-03-30T07:02:05.311Z,56.00
2019-03-30T07:04:37.453Z,56.01
2019-03-30T07:07:12.424Z,56.04
2019-03-30T07:09:46.482Z,56.08
2019-03-30T07:12:21.284Z,56.11
2019-03-30T07:14:54.579Z,56.12
2019-03-30T07:17:26.315Z,56.15
2019-03-30T07:19:59.739Z,56.16
2019-03-30T07:22:31.504Z,56.22
2019-03-30T07:25:04.431Z,56.26
2019-03-30T07:27:36.202Z,56.26
2019-03-30T07:30:09.842Z,56.22
2019-03-30T07:32:41.605Z,56.23
2019-03-30T07:35:13.346Z,56.23
2019-03-30T07:37:45.105Z,56.28
2019-03-30T07:40:16.809Z,56.29
2019-03-30T07:42:48.574Z,56.32
2019-03-30T07:45:20.500Z,56.38
2019-03-30T07:47:52.525Z,56.37
2019-03-30T07:50:24.216Z,56.41
2019-03-30T07:52:55.927Z,56.38
2019-03-30T07:55:27.695Z,56.39
2019-03-30T07:57:59.598Z,56.41
2019-03-30T08:00:31.466Z,56.43
2019-03-30T08:03:03.238Z,56.41
2019-03-30T08:05:35.116Z,56.41
2019-03-30T08:08:06.888Z,56.38
2019-03-30T08:10:38.660Z,56.38
2019-03-30T08:13:10.403Z,56.32
2019-03-30T08:15:42.182Z,56.30
2019-03-30T08:18:13.996Z,56.19
2019-03-30T08:20:45.805Z,56.15
2019-03-30T08:23:17.648Z,56.09
2019-03-30T08:25:49.420Z,56.03
2019-03-30T08:28:21.200Z,56.01
2019-03-30T08:30:52.981Z,55.90
2019-03-30T08:33:24.694Z,55.84
2019-03-30T08:35:56.500Z,55.83
2019-03-30T08:38:29.346Z,56.44
2019-03-30T08:41:01.134Z,55.39
2019-03-30T08:43:32.872Z,54.70
2019-03-30T08:46:04.878Z,54.16
2019-03-30T08:48:36.662Z,53.81
2019-03-30T08:51:08.529Z,53.42
2019-03-30T08:53:53.725Z,53.11
2019-03-30T08:56:14.035Z,52.86
2019-03-30T08:58:45.835Z,52.79
2019-03-30T09:01:17.775Z,52.63
2019-03-30T09:03:49.638Z,52.58
2019-03-30T09:06:21.600Z,52.42
2019-03-30T09:08:53.554Z,52.20
2019-03-30T09:11:25.407Z,52.07
2019-03-30T09:13:57.307Z,51.87
2019-03-30T09:16:29.160Z,51.74
2019-03-30T09:19:01.016Z,52.09
2019-03-30T09:21:32.790Z,52.60
2019-03-30T09:24:10.053Z,53.07
2019-03-30T09:26:39.075Z,53.57
2019-03-30T09:29:10.897Z,53.90
2019-03-30T09:31:42.830Z,53.74
2019-03-30T09:34:14.610Z,53.10
2019-03-30T09:36:46.428Z,52.85
2019-03-30T09:39:18.391Z,52.64
2019-03-30T09:41:50.205Z,52.47
2019-03-30T09:44:22.045Z,52.15
2019-03-30T09:46:53.888Z,52.00
2019-03-30T09:49:25.669Z,51.67
2019-03-30T09:51:57.586Z,51.45
2019-03-30T09:54:29.469Z,51.27
2019-03-30T09:57:01.389Z,51.05
2019-03-30T09:59:33.307Z,50.87
2019-03-30T10:02:05.176Z,50.85
2019-03-30T10:04:37.069Z,50.64
2019-03-30T10:07:08.906Z,50.20
2019-03-30T10:09:40.722Z,49.70
2019-03-30T10:12:12.479Z,49.33
2019-03-30T10:14:44.257Z,48.57
2019-03-30T10:17:16.024Z,48.19
2019-03-30T10:19:57.990Z,47.96
2019-03-30T10:22:21.576Z,47.51
2019-03-30T10:24:53.329Z,47.13
2019-03-30T10:27:25.307Z,46.92
2019-03-30T10:29:57.028Z,46.57
2019-03-30T10:32:28.816Z,46.42
2019-03-30T10:35:00.578Z,46.02
2019-03-30T10:37:33.606Z,45.81
2019-03-30T10:40:05.966Z,45.59
2019-03-30T10:42:37.785Z,45.36
2019-03-30T10:45:09.783Z,45.21
2019-03-30T10:47:41.643Z,45.02
2019-03-30T10:50:13.513Z,44.78
2019-03-30T10:52:45.322Z,44.61
2019-03-30T10:55:17.087Z,44.47
2019-03-30T10:57:48.882Z,44.18
2019-03-30T11:00:40.369Z,44.04
2019-03-30T11:03:12.137Z,43.74
2019-03-30T11:05:43.976Z,43.73
2019-03-30T11:08:15.778Z,43.46
2019-03-30T11:10:47.687Z,43.33
2019-03-30T11:13:19.787Z,43.15
2019-03-30T11:15:52.687Z,42.91
2019-03-30T11:18:24.452Z,42.84
2019-03-30T11:20:56.287Z,42.51
2019-03-30T11:23:28.053Z,42.48
2019-03-30T11:25:59.954Z,42.26
2019-03-30T11:28:31.751Z,42.09
2019-03-30T11:31:05.421Z,41.97
2019-03-30T11:33:36.966Z,41.85
2019-03-30T11:36:08.770Z,41.66
2019-03-30T11:38:40.526Z,41.59
2019-03-30T11:41:12.460Z,41.15
2019-03-30T11:43:44.225Z,41.26
2019-03-30T11:46:15.983Z,41.11
2019-03-30T11:48:47.839Z,40.98
2019-03-30T11:51:19.621Z,41.08
2019-03-30T11:53:51.390Z,40.91
2019-03-30T11:56:23.174Z,40.73
2019-03-30T11:58:54.953Z,40.72
2019-03-30T12:01:26.835Z,40.47
2019-03-30T12:03:58.561Z,40.09
2019-03-30T12:06:30.384Z,40.04
2019-03-30T12:09:02.456Z,39.90
2019-03-30T12:11:34.215Z,39.70
2019-03-30T12:14:05.968Z,39.64
2019-03-30T12:16:37.777Z,39.42
2019-03-30T12:19:09.597Z,39.16
2019-03-30T12:21:41.422Z,39.13
2019-03-30T12:24:13.283Z,39.08
2019-03-30T12:26:45.018Z,38.86
2019-03-30T12:29:16.796Z,38.57
2019-03-30T12:31:48.625Z,38.41
2019-03-30T12:34:20.377Z,38.20
2019-03-30T12:36:52.107Z,38.03
2019-03-30T12:39:23.808Z,37.72
2019-03-30T12:41:55.538Z,37.50
2019-03-30T12:44:27.249Z,37.30
2019-03-30T12:46:59.062Z,36.90
2019-03-30T12:49:30.751Z,36.49
2019-03-30T12:52:02.445Z,36.46
2019-03-30T12:54:34.199Z,35.87
2019-03-30T12:57:05.968Z,35.98
2019-03-30T12:59:37.706Z,35.25
2019-03-30T13:02:09.606Z,33.13
2019-03-30T13:04:41.327Z,30.39
2019-03-30T13:07:13.062Z,27.96
2019-03-30T13:09:44.804Z,26.19
2019-03-30T13:12:16.622Z,24.56
2019-03-30T13:14:48.369Z,23.46
2019-03-30T13:17:20.245Z,22.71
2019-03-30T13:19:52.011Z,21.34
2019-03-30T13:22:23.820Z,20.48
2019-03-30T13:24:55.631Z,19.90
2019-03-30T13:27:27.463Z,19.35
2019-03-30T13:29:59.283Z,19.03
2019-03-30T13:32:31.020Z,18.60
2019-03-30T13:35:02.733Z,18.45
2019-03-30T13:37:34.519Z,18.42
2019-03-30T13:40:06.819Z,18.51
2019-03-30T13:42:38.556Z,18.64
2019-03-30T13:45:10.544Z,18.44
2019-03-30T13:47:42.343Z,18.17
2019-03-30T13:50:14.155Z,17.78
2019-03-30T13:52:45.996Z,17.74
2019-03-30T13:55:17.708Z,17.62
2019-03-30T13:57:49.536Z,16.96
2019-03-30T14:00:21.260Z,16.37
2019-03-30T14:02:53.096Z,15.88
2019-03-30T14:05:24.810Z,15.11
2019-03-30T14:07:57.834Z,14.38
2019-03-30T14:10:29.606Z,13.88
2019-03-30T14:13:01.438Z,13.49
2019-03-30T14:15:33.367Z,13.29
2019-03-30T14:18:05.118Z,13.12
2019-03-30T14:20:36.840Z,12.89
2019-03-30T14:23:08.738Z,12.62
2019-03-30T14:25:40.533Z,12.55
2019-03-30T14:28:12.268Z,12.56
2019-03-30T14:30:44.039Z,12.54
2019-03-30T14:33:15.839Z,12.87
2019-03-30T14:35:47.622Z,13.51
2019-03-30T14:38:19.321Z,14.21
2019-03-30T14:40:51.100Z,15.41
2019-03-30T14:43:22.845Z,16.72
2019-03-30T14:45:54.577Z,17.75
2019-03-30T14:48:26.393Z,18.53
2019-03-30T14:50:58.062Z,19.22
2019-03-30T14:53:29.831Z,19.82
2019-03-30T14:56:01.585Z,20.33
2019-03-30T14:58:33.331Z,21.03
2019-03-30T15:01:05.349Z,21.68
2019-03-30T15:03:37.083Z,22.14
2019-03-30T15:06:08.799Z,22.35
2019-03-30T15:08:40.508Z,22.46
2019-03-30T15:11:12.279Z,22.50
2019-03-30T15:13:44.013Z,22.72
2019-03-30T15:16:15.857Z,22.82
2019-03-30T15:18:47.617Z,22.81
2019-03-30T15:21:19.370Z,22.86
2019-03-30T15:23:51.081Z,23.04
2019-03-30T15:26:23.034Z,23.03
2019-03-30T15:28:54.850Z,23.12
2019-03-30T15:31:26.548Z,23.24
2019-03-30T15:33:58.300Z,23.27
2019-03-30T15:36:30.113Z,23.35
2019-03-30T15:39:01.848Z,23.35
2019-03-30T15:41:35.479Z,23.41
2019-03-30T15:44:07.475Z,23.47
2019-03-30T15:46:39.235Z,23.54
2019-03-30T15:49:11.108Z,23.50
2019-03-30T15:51:42.857Z,23.46
2019-03-30T15:54:14.586Z,23.49
2019-03-30T15:56:46.492Z,23.60
2019-03-30T15:59:18.229Z,23.63
2019-03-30T16:01:49.919Z,23.59
2019-03-30T16:04:21.657Z,23.55
2019-03-30T16:06:53.400Z,23.54
2019-03-30T16:09:25.115Z,23.50
2019-03-30T16:11:56.910Z,23.46
2019-03-30T16:14:28.670Z,23.47
2019-03-30T16:17:00.460Z,23.63
2019-03-30T16:19:32.180Z,23.86
2019-03-30T16:22:03.964Z,24.22
2019-03-30T16:24:35.810Z,24.58
2019-03-30T16:27:07.586Z,24.71
2019-03-30T16:29:39.334Z,24.74
2019-03-30T16:32:11.166Z,24.78
2019-03-30T16:34:43.922Z,25.01
2019-03-30T16:37:15.611Z,25.12
2019-03-30T16:39:47.339Z,25.19
2019-03-30T16:42:19.123Z,25.39
2019-03-30T16:44:51.030Z,25.71
2019-03-30T16:47:22.815Z,25.98
2019-03-30T16:49:54.575Z,26.32
2019-03-30T16:52:26.390Z,26.69
2019-03-30T16:54:58.294Z,26.87
2019-03-30T16:57:42.415Z,27.08
2019-03-30T17:00:03.603Z,27.28
2019-03-30T17:02:35.420Z,27.59
2019-03-30T17:05:07.982Z,28.06
2019-03-30T17:07:39.694Z,28.65
2019-03-30T17:10:12.890Z,28.86
2019-03-30T17:12:44.638Z,29.06
2019-03-30T17:15:16.426Z,29.14
2019-03-30T17:17:48.169Z,29.49
2019-03-30T17:20:20.140Z,28.73
2019-03-30T17:22:51.960Z,29.07
2019-03-30T17:25:23.717Z,29.28
2019-03-30T17:27:58.663Z,29.54
2019-03-30T17:30:28.999Z,29.76
2019-03-30T17:33:00.792Z,29.96
2019-03-30T17:35:33.720Z,30.22
2019-03-30T17:38:05.628Z,30.56
2019-03-30T17:40:37.495Z,30.76
2019-03-30T17:43:09.221Z,30.86
2019-03-30T17:45:41.052Z,31.02
2019-03-30T17:48:12.733Z,31.16
2019-03-30T17:50:44.476Z,31.32
2019-03-30T17:53:17.108Z,31.43
2019-03-30T17:55:48.958Z,31.59
2019-03-30T17:58:21.735Z,31.79
2019-03-30T18:00:53.471Z,32.03
2019-03-30T18:03:25.330Z,32.14
2019-03-30T18:05:57.074Z,32.24
2019-03-30T18:08:28.934Z,32.43
2019-03-30T18:11:04.011Z,32.61
2019-03-30T18:13:36.966Z,32.73
2019-03-30T18:16:09.759Z,32.97
2019-03-30T18:18:41.748Z,33.18
2019-03-30T18:21:13.603Z,33.36
2019-03-30T18:23:47.535Z,33.53
2019-03-30T18:26:18.779Z,33.64
2019-03-30T18:28:50.465Z,33.87
2019-03-30T18:31:22.343Z,33.91
2019-03-30T18:33:54.059Z,34.10
2019-03-30T18:36:27.097Z,34.15
2019-03-30T18:39:09.468Z,34.20
2019-03-30T18:41:34.420Z,34.34
2019-03-30T18:44:06.365Z,34.55
2019-03-30T18:46:38.161Z,34.67
2019-03-30T18:49:10.158Z,34.72
2019-03-30T18:51:43.567Z,34.87
2019-03-30T18:54:15.568Z,34.95
2019-03-30T18:56:47.382Z,35.02
2019-03-30T18:59:19.189Z,35.05
2019-03-30T19:01:50.996Z,35.18
2019-03-30T19:04:22.936Z,35.18
2019-03-30T19:06:54.760Z,35.30
2019-03-30T19:09:26.649Z,35.40
2019-03-30T19:11:58.646Z,35.47
2019-03-30T19:14:30.487Z,35.40
2019-03-30T19:17:02.254Z,35.38
2019-03-30T19:19:34.171Z,35.37
2019-03-30T19:22:05.938Z,35.40
2019-03-30T19:24:37.865Z,35.47
2019-03-30T19:27:09.859Z,35.52
2019-03-30T19:29:41.685Z,35.59
2019-03-30T19:32:13.491Z,35.64
2019-03-30T19:34:45.351Z,35.79
2019-03-30T19:37:17.228Z,35.94
2019-03-30T19:39:49.062Z,36.08
2019-03-30T19:42:20.876Z,36.21
2019-03-30T19:44:55.697Z,36.30
2019-03-30T19:47:27.666Z,36.42
2019-03-30T19:49:59.652Z,36.49
2019-03-30T19:52:39.753Z,36.62
2019-03-30T19:55:05.534Z,36.66
2019-03-30T19:57:37.476Z,36.79
2019-03-30T20:00:10.020Z,36.94
2019-03-30T20:02:42.260Z,37.04
2019-03-30T20:05:14.899Z,37.17
2019-03-30T20:07:47.056Z,37.20
2019-03-30T20:10:19.234Z,37.24
2019-03-30T20:12:51.161Z,37.26
2019-03-30T20:15:23.439Z,37.25
2019-03-30T20:17:55.330Z,37.28
2019-03-30T20:23:57.583Z,37.37
2019-03-30T20:26:29.427Z,37.46
2019-03-30T20:29:01.745Z,37.50
2019-03-30T20:31:33.613Z,37.64
2019-03-30T20:34:05.679Z,37.66
2019-03-30T20:36:37.604Z,37.72
2019-03-30T20:39:09.688Z,37.80
2019-03-30T20:41:41.532Z,37.83
2019-03-30T20:44:13.365Z,37.96
2019-03-30T20:46:45.672Z,38.02
2019-03-30T20:49:17.902Z,38.05
2019-03-30T20:51:49.885Z,38.11
2019-03-30T20:54:21.892Z,38.15
2019-03-30T20:56:53.689Z,38.14
2019-03-30T20:59:39.084Z,38.15
2019-03-30T21:01:59.475Z,38.15
2019-03-30T21:04:31.623Z,38.16
2019-03-30T21:07:03.641Z,38.14
2019-03-30T21:09:35.684Z,38.16
2019-03-30T21:12:07.980Z,38.16
2019-03-30T21:14:40.523Z,38.17
2019-03-30T21:17:12.568Z,38.20
2019-03-30T21:19:44.602Z,38.20
2019-03-30T21:22:16.562Z,38.17
2019-03-30T21:24:48.518Z,38.21
2019-03-30T21:27:20.303Z,38.27
2019-03-30T21:29:54.901Z,38.28
2019-03-30T21:32:25.930Z,38.30
2019-03-30T21:34:58.025Z,38.33
2019-03-30T21:37:29.901Z,38.41
2019-03-30T21:40:01.763Z,38.41
2019-03-30T21:42:33.648Z,38.44
2019-03-30T21:45:06.260Z,38.48
2019-03-30T21:47:38.242Z,38.46
2019-03-30T21:50:10.370Z,38.54
2019-03-30T21:52:42.163Z,38.56
2019-03-30T21:55:14.390Z,38.60
2019-03-30T21:57:48.090Z,38.68
2019-03-30T22:00:37.590Z,38.70
2019-03-30T22:03:09.485Z,38.75
2019-03-30T22:05:41.708Z,38.80
2019-03-30T22:08:17.014Z,38.86
2019-03-30T22:10:47.102Z,38.86
2019-03-30T22:13:21.470Z,38.90
2019-03-30T22:15:53.859Z,38.96
2019-03-30T22:18:25.669Z,39.01
2019-03-30T22:20:57.544Z,39.03
2019-03-30T22:23:29.393Z,39.11
2019-03-30T22:26:01.200Z,39.15
2019-03-30T22:28:33.193Z,39.13
2019-03-30T22:31:07.053Z,39.19
2019-03-30T22:33:38.978Z,39.23
2019-03-30T22:36:10.783Z,39.25
2019-03-30T22:38:42.848Z,39.29
2019-03-30T22:41:14.719Z,39.33
2019-03-30T22:43:46.832Z,39.37
2019-03-30T22:46:18.646Z,39.37
2019-03-30T22:48:50.462Z,39.44
2019-03-30T22:51:23.409Z,39.51
2019-03-30T22:53:55.490Z,39.57
2019-03-30T22:56:27.480Z,39.64
2019-03-30T22:58:59.440Z,39.68
2019-03-30T23:01:31.260Z,39.71
2019-03-30T23:04:03.858Z,39.75
2019-03-30T23:06:35.727Z,39.79
2019-03-30T23:09:11.251Z,39.82
2019-03-30T23:11:41.448Z,39.91
2019-03-30T23:14:13.768Z,39.93
2019-03-30T23:16:45.630Z,40.00
2019-03-30T23:19:17.533Z,40.03
2019-03-30T23:21:49.284Z,40.13
2019-03-30T23:24:21.144Z,40.12
2019-03-30T23:26:53.165Z,40.18
2019-03-30T23:29:25.073Z,40.29
2019-03-30T23:31:56.915Z,40.39
2019-03-30T23:34:29.423Z,40.45
2019-03-30T23:37:01.331Z,40.53
2019-03-30T23:39:33.273Z,40.65
2019-03-30T23:42:05.279Z,40.76
2019-03-30T23:44:37.369Z,40.83
2019-03-30T23:47:09.359Z,40.94
2019-03-30T23:49:41.409Z,41.04
2019-03-30T23:52:13.255Z,41.11
2019-03-30T23:54:45.125Z,41.22
2019-03-30T23:57:16.945Z,41.38
2019-03-30T23:59:48.769Z,41.45
